Time;durP1;ratioP1;P1;durP2;ratioP2;P2;SDS_P1;SDS_P2;PMS_P1;PMS_P2;Temp;Humidity;BMP_temperature;BMP_pressure;BME280_temperature;BME280_humidity;BME280_pressure;Samples;Min_cycle;Max_cycle;Signal;HPM_P1;HPM_P2
2023/03/09 00:01:37;;;;;;;0.30;0.30;;;;;;;;;;7403643;19;20164;-87
2023/03/09 00:04:03;;;;;;;0.30;0.30;;;;;;;;;;7404806;19;20153;-87
2023/03/09 00:06:30;;;;;;;0.50;0.50;;;;;;;;;;7403623;19;20639;-87
2023/03/09 00:08:57;;;;;;;0.30;0.30;;;;;;;;;;7403034;19;20133;-86
2023/03/09 00:11:24;;;;;;;0.30;0.30;;;;;;;;;;7403184;19;20132;-87
2023/03/09 00:13:52;;;;;;;0.30;0.30;;;;;;;;;;7400351;19;20148;-86
2023/03/09 00:16:24;;;;;;;0.30;0.30;;;;;;;;;;7404880;19;20137;-87
2023/03/09 00:18:52;;;;;;;0.30;0.30;;;;;;;;;;7404641;19;20125;-86
2023/03/09 00:21:36;;;;;;;0.30;0.30;;;;;;;;;;7404157;19;20600;-87
2023/03/09 00:24:10;;;;;;;0.83;0.50;;;;;;;;;;7402880;19;20161;-88
2023/03/09 00:26:39;;;;;;;0.30;0.30;;;;;;;;;;7402095;19;20169;-87
2023/03/09 00:29:08;;;;;;;0.30;0.30;;;;;;;;;;7400852;19;20673;-85
2023/03/09 00:31:35;;;;;;;0.30;0.30;;;;;;;;;;7403544;19;20125;-86
2023/03/09 00:34:01;;;;;;;0.30;0.30;;;;;;;;;;7402902;19;20644;-87
2023/03/09 00:36:28;;;;;;;0.30;0.30;;;;;;;;;;7397402;19;20141;-84
2023/03/09 00:38:56;;;;;;;0.30;0.30;;;;;;;;;;7399391;19;20129;-86
2023/03/09 00:41:24;;;;;;;0.30;0.30;;;;;;;;;;7399278;19;20141;-88
2023/03/09 00:43:50;;;;;;;0.30;0.30;;;;;;;;;;7400558;19;20160;-86
2023/03/09 00:46:17;;;;;;;0.30;0.30;;;;;;;;;;7400357;19;20129;-86
2023/03/09 00:48:43;;;;;;;0.30;0.30;;;;;;;;;;7399768;19;20200;-87
2023/03/09 00:51:10;;;;;;;0.30;0.30;;;;;;;;;;7397097;19;20141;-86
2023/03/09 00:53:37;;;;;;;0.30;0.30;;;;;;;;;;7397863;19;20500;-87
2023/03/09 00:56:07;;;;;;;0.30;0.30;;;;;;;;;;7401393;19;20125;-87
2023/03/09 00:58:35;;;;;;;0.30;0.30;;;;;;;;;;7399885;19;21046;-86
2023/03/09 01:01:06;;;;;;;0.30;0.30;;;;;;;;;;7400335;19;20135;-87
2023/03/09 01:03:33;;;;;;;0.30;0.30;;;;;;;;;;7398268;19;20145;-86
2023/03/09 01:06:00;;;;;;;0.30;0.30;;;;;;;;;;7398839;19;20125;-85
2023/03/09 01:08:26;;;;;;;0.30;0.30;;;;;;;;;;7402921;19;20133;-87
2023/03/09 01:10:53;;;;;;;0.30;0.30;;;;;;;;;;7402171;19;20250;-86
2023/03/09 01:13:19;;;;;;;0.30;0.30;;;;;;;;;;7395817;19;20644;-87
2023/03/09 01:15:46;;;;;;;0.30;0.30;;;;;;;;;;7396845;19;20156;-87
2023/03/09 01:18:13;;;;;;;0.30;0.30;;;;;;;;;;7394896;19;20141;-87
2023/03/09 01:20:39;;;;;;;0.30;0.30;;;;;;;;;;7391893;19;20531;-88
2023/03/09 01:23:06;;;;;;;0.30;0.30;;;;;;;;;;7394713;19;20171;-87
2023/03/09 01:25:32;;;;;;;0.70;0.70;;;;;;;;;;7398983;19;20148;-87
2023/03/09 01:27:59;;;;;;;0.30;0.30;;;;;;;;;;7397048;19;20125;-87
2023/03/09 01:30:25;;;;;;;0.40;0.40;;;;;;;;;;7398474;19;20137;-87
2023/03/09 01:32:53;;;;;;;0.30;0.30;;;;;;;;;;7399772;19;20160;-86
2023/03/09 01:35:19;;;;;;;0.30;0.30;;;;;;;;;;7398049;19;20144;-86
2023/03/09 01:37:46;;;;;;;0.80;0.80;;;;;;;;;;7397251;19;20153;-86
2023/03/09 01:40:17;;;;;;;0.30;0.30;;;;;;;;;;7396783;19;20495;-87
2023/03/09 01:42:44;;;;;;;0.30;0.30;;;;;;;;;;7397032;19;20152;-88
2023/03/09 01:45:19;;;;;;;0.30;0.30;;;;;;;;;;7399009;19;20137;-86
2023/03/09 01:47:46;;;;;;;0.57;0.57;;;;;;;;;;7399480;19;20157;-87
2023/03/09 01:50:26;;;;;;;0.30;0.30;;;;;;;;;;7398637;19;20125;-86
2023/03/09 01:52:54;;;;;;;0.30;0.30;;;;;;;;;;7399621;19;20191;-86
2023/03/09 01:55:29;;;;;;;2.00;1.13;;;;;;;;;;7397734;19;20137;-83
2023/03/09 01:57:59;;;;;;;0.33;0.33;;;;;;;;;;7395950;19;20164;-87
2023/03/09 02:00:26;;;;;;;0.30;0.30;;;;;;;;;;7397012;19;20129;-87
2023/03/09 02:02:57;;;;;;;0.50;0.50;;;;;;;;;;7396244;19;20165;-87
2023/03/09 02:05:26;;;;;;;0.30;0.30;;;;;;;;;;7398646;19;20125;-87
2023/03/09 02:07:53;;;;;;;4.30;0.50;;;;;;;;;;7396619;19;20128;-88
2023/03/09 02:10:38;;;;;;;0.83;0.83;;;;;;;;;;7397502;19;20157;-88
2023/03/09 02:13:07;;;;;;;0.30;0.30;;;;;;;;;;7406776;19;20160;-86
2023/03/09 02:15:34;;;;;;;0.30;0.30;;;;;;;;;;7408318;19;20133;-87
2023/03/09 02:18:02;;;;;;;0.30;0.30;;;;;;;;;;7414699;19;20157;-87
2023/03/09 02:20:36;;;;;;;0.30;0.30;;;;;;;;;;7411066;19;20151;-86
2023/03/09 02:23:07;;;;;;;0.50;0.50;;;;;;;;;;7399206;19;20156;-87
2023/03/09 02:25:38;;;;;;;0.70;0.70;;;;;;;;;;7397231;19;20156;-88
2023/03/09 02:28:06;;;;;;;0.30;0.30;;;;;;;;;;7395014;19;20153;-87
2023/03/09 02:30:35;;;;;;;0.33;0.33;;;;;;;;;;7400821;19;20140;-83
2023/03/09 02:33:04;;;;;;;0.20;0.20;;;;;;;;;;7426902;19;20177;-85
2023/03/09 02:35:31;;;;;;;0.30;0.30;;;;;;;;;;7427855;19;20124;-86
2023/03/09 02:37:57;;;;;;;0.30;0.30;;;;;;;;;;7411635;19;20133;-88
2023/03/09 02:40:31;;;;;;;0.30;0.30;;;;;;;;;;7406195;19;20129;-88
2023/03/09 02:42:59;;;;;;;0.30;0.30;;;;;;;;;;7397970;19;20204;-89
2023/03/09 02:45:26;;;;;;;0.47;0.47;;;;;;;;;;7401468;19;20181;-88
2023/03/09 02:47:54;;;;;;;0.40;0.40;;;;;;;;;;7398842;19;20135;-87
2023/03/09 02:50:21;;;;;;;0.30;0.30;;;;;;;;;;7400085;19;20140;-86
2023/03/09 02:52:47;;;;;;;0.30;0.30;;;;;;;;;;7399384;19;20181;-87
2023/03/09 04:13:31;;;;;;;0.30;0.30;;;;;;;;;;7428753;19;20157;-96
2023/03/09 04:15:59;;;;;;;0.30;0.30;;;;;;;;;;7427491;19;20160;-95
2023/03/09 04:18:26;;;;;;;0.30;0.30;;;;;;;;;;7428268;19;20137;-96
2023/03/09 04:20:53;;;;;;;0.40;0.40;;;;;;;;;;7427903;19;20129;-95
2023/03/09 04:23:20;;;;;;;0.30;0.30;;;;;;;;;;7426113;19;20176;-96
2023/03/09 04:25:55;;;;;;;0.30;0.30;;;;;;;;;;7427527;19;20121;-96
2023/03/09 04:28:23;;;;;;;0.70;0.70;;;;;;;;;;7427349;19;20140;-96
2023/03/09 04:30:50;;;;;;;0.30;0.30;;;;;;;;;;7427398;19;20129;-95
2023/03/09 04:33:17;;;;;;;0.40;0.40;;;;;;;;;;7427403;19;20153;-96
2023/03/09 04:35:45;;;;;;;0.30;0.30;;;;;;;;;;7428646;19;20173;-96
2023/03/09 04:38:13;;;;;;;0.30;0.30;;;;;;;;;;7428275;19;20161;-96
2023/03/09 04:40:41;;;;;;;0.57;0.57;;;;;;;;;;7429524;19;20125;-96
2023/03/09 07:19:51;;;;;;;0.30;0.30;;;;;;;;;;7399635;19;20157;-89
2023/03/09 07:22:18;;;;;;;0.30;0.30;;;;;;;;;;7398901;19;20136;-90
2023/03/09 07:24:45;;;;;;;0.30;0.30;;;;;;;;;;7398890;19;20129;-89
2023/03/09 07:27:11;;;;;;;0.30;0.30;;;;;;;;;;7398427;19;20133;-89
2023/03/09 07:29:40;;;;;;;0.30;0.30;;;;;;;;;;7397445;19;20132;-89
2023/03/09 07:32:07;;;;;;;0.30;0.30;;;;;;;;;;7395400;19;20133;-89
2023/03/09 07:34:34;;;;;;;0.30;0.30;;;;;;;;;;7398029;19;20449;-89
2023/03/09 07:37:00;;;;;;;0.30;0.30;;;;;;;;;;7395672;19;20141;-90
2023/03/09 07:39:27;;;;;;;0.30;0.30;;;;;;;;;;7397972;19;20117;-90
2023/03/09 07:41:54;;;;;;;0.30;0.30;;;;;;;;;;7397449;19;20133;-89
2023/03/09 07:44:20;;;;;;;0.80;0.73;;;;;;;;;;7395986;19;20233;-91
2023/03/09 07:46:47;;;;;;;0.30;0.30;;;;;;;;;;7392634;19;20153;-91
2023/03/09 07:49:14;;;;;;;0.30;0.30;;;;;;;;;;7395612;19;20496;-90
2023/03/09 07:51:40;;;;;;;0.43;0.40;;;;;;;;;;7395142;19;20133;-92
2023/03/09 07:54:07;;;;;;;0.37;0.37;;;;;;;;;;7397095;19;20158;-84
2023/03/09 07:56:34;;;;;;;0.30;0.30;;;;;;;;;;7395427;19;20617;-83
2023/03/09 07:59:00;;;;;;;0.30;0.30;;;;;;;;;;7396414;19;20132;-92
2023/03/09 08:01:27;;;;;;;0.30;0.30;;;;;;;;;;7396499;19;20129;-89
2023/03/09 08:03:54;;;;;;;0.30;0.30;;;;;;;;;;7392777;19;20133;-91
2023/03/09 08:06:20;;;;;;;0.77;0.77;;;;;;;;;;7393718;19;20724;-90
2023/03/09 08:08:47;;;;;;;0.30;0.30;;;;;;;;;;7393797;19;20121;-92
2023/03/09 08:11:14;;;;;;;0.37;0.37;;;;;;;;;;7392877;19;20145;-91
2023/03/09 08:13:41;;;;;;;0.20;0.20;;;;;;;;;;7394742;19;20129;-92
2023/03/09 08:16:08;;;;;;;0.40;0.40;;;;;;;;;;7393269;19;20137;-92
2023/03/09 08:18:38;;;;;;;0.30;0.30;;;;;;;;;;7397400;19;20153;-93
2023/03/09 08:21:13;;;;;;;0.30;0.30;;;;;;;;;;7395985;19;20129;-91
2023/03/09 08:23:40;;;;;;;0.30;0.30;;;;;;;;;;7397011;19;20133;-90
2023/03/09 08:26:08;;;;;;;0.30;0.30;;;;;;;;;;7394459;19;20149;-90
2023/03/09 08:28:35;;;;;;;0.50;0.50;;;;;;;;;;7394716;19;20604;-90
2023/03/09 08:31:02;;;;;;;0.30;0.30;;;;;;;;;;7393714;19;20157;-91
2023/03/09 08:33:28;;;;;;;0.30;0.30;;;;;;;;;;7394101;19;20129;-91
2023/03/09 08:35:55;;;;;;;0.40;0.40;;;;;;;;;;7393042;19;20145;-91
2023/03/09 08:38:22;;;;;;;0.30;0.30;;;;;;;;;;7393317;19;20531;-91
2023/03/09 08:40:48;;;;;;;0.30;0.30;;;;;;;;;;7393620;19;20153;-91
2023/03/09 08:43:15;;;;;;;0.30;0.30;;;;;;;;;;7393407;19;20133;-92
2023/03/09 08:45:41;;;;;;;0.30;0.30;;;;;;;;;;7392714;19;20153;-90
2023/03/09 08:48:08;;;;;;;0.27;0.27;;;;;;;;;;7393538;19;20145;-90
2023/03/09 08:50:35;;;;;;;0.30;0.30;;;;;;;;;;7392252;19;20142;-90
2023/03/09 08:53:01;;;;;;;0.30;0.30;;;;;;;;;;7393377;19;20133;-91
2023/03/09 08:55:28;;;;;;;0.30;0.30;;;;;;;;;;7393850;19;20141;-91
2023/03/09 08:57:56;;;;;;;0.30;0.30;;;;;;;;;;7392649;19;20585;-91
2023/03/09 09:00:22;;;;;;;0.30;0.30;;;;;;;;;;7393066;19;20512;-90
2023/03/09 09:02:49;;;;;;;0.30;0.30;;;;;;;;;;7393191;19;20153;-90
2023/03/09 09:05:16;;;;;;;0.30;0.30;;;;;;;;;;7391775;19;20156;-90
2023/03/09 09:07:43;;;;;;;0.30;0.30;;;;;;;;;;7393013;19;20481;-90
2023/03/09 09:10:11;;;;;;;0.30;0.30;;;;;;;;;;7393017;19;20150;-91
2023/03/09 09:12:57;;;;;;;0.60;0.60;;;;;;;;;;7392399;19;20155;-90
2023/03/09 09:15:23;;;;;;;0.30;0.30;;;;;;;;;;7391593;19;20178;-91
2023/03/09 09:17:53;;;;;;;0.57;0.57;;;;;;;;;;7391872;19;20125;-90
2023/03/09 09:20:19;;;;;;;0.40;0.40;;;;;;;;;;7391712;19;20473;-88
